Language: 


Des rapports , des résumés tant et plus, au choix de chacun....


Données Historiques de Météogheer
Journalier Rapport pour Février 9, 2017 Unitée:  Les deux    Impériale   Métrique
Suivant Jour »
Journalier Hebdomadaire Mensuel Annuel Sur mesure
  Max: Min: Moyenne:
Température: 37.2 °F /  2.9 °C 33.6 °F /  0.9 °C 35.8 °F /  2.1 °C
Point de rosée: 36.9 °F /  2.7 °C 32.7 °F /  0.4 °C 35.2 °F /  1.8 °C
Humidité: 98% 96% 98%
Vent: 8.5mph /  13.7km/h - 5.5mph /  8.8km/h
Rafales: 10.3mph /  16.6km/h - -
Vent- - ENE
Pression: 30.3 in /  1027.0 hPa 30.2 in /  1021.9 hPa -
Pluie: 0 in /  0.0 mm    
Historical Graphs
 
 
Données tabulaires pour Février 9, 2017
Heure Température Point de rosée Pression Vent Vent Rafales Humidité Pluie Taux (Horaire) Conditions
00:03 36.9 °F /  2.7 °C 36.1 °F /  2.3 °C 30.3in /  1027.0hPa NNW 5.4mph /  8.7km/h 8.1mph /  13.0km/h 97% 0in /  0.0mm
00:08 36.9 °F /  2.7 °C 36.1 °F /  2.3 °C 30.3in /  1027.0hPa NNE 5.6mph /  9.0km/h 8.1mph /  13.0km/h 97% 0in /  0.0mm
00:13 36.9 °F /  2.7 °C 36.1 °F /  2.3 °C 30.3in /  1027.0hPa NNE 6.5mph /  10.5km/h 8.7mph /  14.0km/h 97% 0in /  0.0mm
00:18 36.9 °F /  2.7 °C 36.3 °F /  2.4 °C 30.3in /  1027.0hPa NE 6.3mph /  10.1km/h 8.7mph /  14.0km/h 98% 0in /  0.0mm
00:23 36.9 °F /  2.7 °C 36.3 °F /  2.4 °C 30.3in /  1027.0hPa NNE 2.9mph /  4.7km/h 7.8mph /  12.6km/h 98% 0in /  0.0mm
00:28 36.9 °F /  2.7 °C 36.3 °F /  2.4 °C 30.3in /  1027.0hPa NE 4.9mph /  7.9km/h 7.8mph /  12.6km/h 98% 0in /  0.0mm
00:33 36.9 °F /  2.7 °C 36.3 °F /  2.4 °C 30.3in /  1027.0hPa NNE 4.3mph /  6.9km/h 7.4mph /  11.9km/h 98% 0in /  0.0mm
00:38 36.9 °F /  2.7 °C 36.3 °F /  2.4 °C 30.3in /  1027.0hPa North 5.4mph /  8.7km/h 7.4mph /  11.9km/h 98% 0in /  0.0mm
00:43 36.9 °F /  2.7 °C 36.3 °F /  2.4 °C 30.3in /  1027.0hPa NNE 3.1mph /  5.0km/h 6mph /  9.7km/h 98% 0in /  0.0mm
00:48 36.9 °F /  2.7 °C 36.3 °F /  2.4 °C 30.3in /  1027.0hPa NNE 6mph /  9.7km/h 7.6mph /  12.2km/h 98% 0in /  0.0mm
00:53 36.9 °F /  2.7 °C 36.3 °F /  2.4 °C 30.3in /  1026.0hPa NE 4.3mph /  6.9km/h 7.6mph /  12.2km/h 98% 0in /  0.0mm
00:58 36.9 °F /  2.7 °C 36.3 °F /  2.4 °C 30.3in /  1026.0hPa NNE 3.4mph /  5.5km/h 6.3mph /  10.1km/h 98% 0in /  0.0mm
01:03 36.9 °F /  2.7 °C 36.3 °F /  2.4 °C 30.3in /  1026.0hPa NNE 3.4mph /  5.5km/h 6.3mph /  10.1km/h 98% 0in /  0.0mm
01:08 36.9 °F /  2.7 °C 36.3 °F /  2.4 °C 30.3in /  1027.0hPa North 3.8mph /  6.1km/h 6.5mph /  10.5km/h 98% 0in /  0.0mm
01:13 36.9 °F /  2.7 °C 36.3 °F /  2.4 °C 30.3in /  1027.0hPa NE 4.9mph /  7.9km/h 6.5mph /  10.5km/h 98% 0in /  0.0mm
01:18 36.9 °F /  2.7 °C 36.3 °F /  2.4 °C 30.3in /  1027.0hPa NE 6.3mph /  10.1km/h 6.5mph /  10.5km/h 98% 0in /  0.0mm
01:23 36.9 °F /  2.7 °C 36.3 °F /  2.4 °C 30.3in /  1027.0hPa NE 4.9mph /  7.9km/h 7.2mph /  11.6km/h 98% 0in /  0.0mm
01:28 36.9 °F /  2.7 °C 36.3 °F /  2.4 °C 30.3in /  1027.0hPa NE 6.3mph /  10.1km/h 7.2mph /  11.6km/h 98% 0in /  0.0mm
01:33 36.9 °F /  2.7 °C 36.3 °F /  2.4 °C 30.3in /  1027.0hPa NE 5.6mph /  9.0km/h 6.3mph /  10.1km/h 98% 0in /  0.0mm
01:38 36.7 °F /  2.6 °C 36.1 °F /  2.3 °C 30.3in /  1027.0hPa NE 6.3mph /  10.1km/h 7.4mph /  11.9km/h 98% 0in /  0.0mm
01:43 36.7 °F /  2.6 °C 36.1 °F /  2.3 °C 30.3in /  1027.0hPa NE 6mph /  9.7km/h 7.8mph /  12.6km/h 98% 0in /  0.0mm
01:48 36.3 °F /  2.4 °C 36 °F /  2.2 °C 30.3in /  1027.0hPa NE 5.8mph /  9.3km/h 7.8mph /  12.6km/h 98% 0in /  0.0mm
01:53 36.3 °F /  2.4 °C 36 °F /  2.2 °C 30.3in /  1027.0hPa NE 6.7mph /  10.8km/h 7.6mph /  12.2km/h 98% 0in /  0.0mm
01:58 36.3 °F /  2.4 °C 36 °F /  2.2 °C 30.3in /  1027.0hPa NE 5.8mph /  9.3km/h 7.6mph /  12.2km/h 98% 0in /  0.0mm
02:03 36.1 °F /  2.3 °C 35.8 °F /  2.1 °C 30.3in /  1027.0hPa NE 6.5mph /  10.5km/h 8.1mph /  13.0km/h 98% 0in /  0.0mm
02:08 36.1 °F /  2.3 °C 35.8 °F /  2.1 °C 30.3in /  1026.0hPa NE 5.8mph /  9.3km/h 8.1mph /  13.0km/h 98% 0in /  0.0mm
02:13 36.1 °F /  2.3 °C 35.8 °F /  2.1 °C 30.3in /  1026.0hPa NNE 7.6mph /  12.2km/h 8.1mph /  13.0km/h 98% 0in /  0.0mm
02:18 36.1 °F /  2.3 °C 35.8 °F /  2.1 °C 30.3in /  1026.0hPa NE 3.6mph /  5.8km/h 7.6mph /  12.2km/h 98% 0in /  0.0mm
02:23 36.1 °F /  2.3 °C 35.8 °F /  2.1 °C 30.3in /  1027.0hPa NE 5.6mph /  9.0km/h 8.7mph /  14.0km/h 98% 0in /  0.0mm
02:28 36.1 °F /  2.3 °C 35.4 °F /  1.9 °C 30.3in /  1027.0hPa NNE 3.4mph /  5.5km/h 8.7mph /  14.0km/h 98% 0in /  0.0mm
02:33 36.1 °F /  2.3 °C 35.4 °F /  1.9 °C 30.3in /  1027.0hPa NNE 6.3mph /  10.1km/h 8.1mph /  13.0km/h 98% 0in /  0.0mm
02:38 36.1 °F /  2.3 °C 35.4 °F /  1.9 °C 30.3in /  1026.0hPa NNE 5.8mph /  9.3km/h 7.8mph /  12.6km/h 98% 0in /  0.0mm
02:43 36.1 °F /  2.3 °C 35.4 °F /  1.9 °C 30.3in /  1026.0hPa ENE 5.6mph /  9.0km/h 7.8mph /  12.6km/h 98% 0in /  0.0mm
02:48 36.1 °F /  2.3 °C 35.4 °F /  1.9 °C 30.3in /  1026.0hPa ENE 5.4mph /  8.7km/h 6.9mph /  11.1km/h 98% 0in /  0.0mm
02:53 36.1 °F /  2.3 °C 35.4 °F /  1.9 °C 30.3in /  1027.0hPa NNE 7.6mph /  12.2km/h 7.6mph /  12.2km/h 98% 0in /  0.0mm
02:58 36.1 °F /  2.3 °C 35.4 °F /  1.9 °C 30.3in /  1027.0hPa NNE 6.7mph /  10.8km/h 7.8mph /  12.6km/h 98% 0in /  0.0mm
03:03 36.1 °F /  2.3 °C 35.4 °F /  1.9 °C 30.3in /  1027.0hPa NNE 8.1mph /  13.0km/h 8.1mph /  13.0km/h 98% 0in /  0.0mm
03:08 36 °F /  2.2 °C 35.4 °F /  1.9 °C 30.3in /  1027.0hPa NE 7.4mph /  11.9km/h 8.1mph /  13.0km/h 98% 0in /  0.0mm
03:13 36 °F /  2.2 °C 35.4 °F /  1.9 °C 30.3in /  1027.0hPa NE 5.4mph /  8.7km/h 8.1mph /  13.0km/h 98% 0in /  0.0mm
03:18 36 °F /  2.2 °C 35.4 °F /  1.9 °C 30.3in /  1027.0hPa NNE 4.3mph /  6.9km/h 8.1mph /  13.0km/h 98% 0in /  0.0mm
03:23 36 °F /  2.2 °C 35.4 °F /  1.9 °C 30.3in /  1026.0hPa NE 7.4mph /  11.9km/h 8.1mph /  13.0km/h 98% 0in /  0.0mm
03:28 35.8 °F /  2.1 °C 35.2 °F /  1.8 °C 30.3in /  1026.0hPa NNE 4.9mph /  7.9km/h 8.1mph /  13.0km/h 98% 0in /  0.0mm
03:33 35.8 °F /  2.1 °C 35.2 °F /  1.8 °C 30.3in /  1026.0hPa North 5.6mph /  9.0km/h 8.1mph /  13.0km/h 98% 0in /  0.0mm
03:38 35.8 °F /  2.1 °C 35.2 °F /  1.8 °C 30.3in /  1027.0hPa NE 6.3mph /  10.1km/h 8.1mph /  13.0km/h 98% 0in /  0.0mm
03:43 35.8 °F /  2.1 °C 35.2 °F /  1.8 °C 30.3in /  1027.0hPa NNE 4mph /  6.4km/h 7.6mph /  12.2km/h 98% 0in /  0.0mm
03:48 35.8 °F /  2.1 °C 35.2 °F /  1.8 °C 30.3in /  1027.0hPa NE 3.4mph /  5.5km/h 7.6mph /  12.2km/h 98% 0in /  0.0mm
03:53 35.8 °F /  2.1 °C 35.2 °F /  1.8 °C 30.3in /  1026.0hPa NNE 5.6mph /  9.0km/h 6.7mph /  10.8km/h 98% 0in /  0.0mm
03:58 35.8 °F /  2.1 °C 35.2 °F /  1.8 °C 30.3in /  1026.0hPa NE 4mph /  6.4km/h 6.5mph /  10.5km/h 98% 0in /  0.0mm
04:03 35.8 °F /  2.1 °C 35.2 °F /  1.8 °C 30.3in /  1026.0hPa North 5.6mph /  9.0km/h 7.6mph /  12.2km/h 98% 0in /  0.0mm
04:08 35.8 °F /  2.1 °C 35.2 °F /  1.8 °C 30.3in /  1026.0hPa NNE 6.3mph /  10.1km/h 7.6mph /  12.2km/h 98% 0in /  0.0mm
04:13 35.8 °F /  2.1 °C 35.2 °F /  1.8 °C 30.3in /  1026.0hPa NE 6.5mph /  10.5km/h 8.1mph /  13.0km/h 98% 0in /  0.0mm
04:18 35.4 °F /  1.9 °C 35.1 °F /  1.7 °C 30.3in /  1026.0hPa NE 7.4mph /  11.9km/h 8.5mph /  13.7km/h 98% 0in /  0.0mm
04:23 35.4 °F /  1.9 °C 35.1 °F /  1.7 °C 30.3in /  1026.0hPa NE 5.4mph /  8.7km/h 8.7mph /  14.0km/h 98% 0in /  0.0mm
04:28 35.4 °F /  1.9 °C 35.1 °F /  1.7 °C 30.3in /  1026.0hPa ENE 8.5mph /  13.7km/h 8.7mph /  14.0km/h 98% 0in /  0.0mm
04:33 35.4 °F /  1.9 °C 35.1 °F /  1.7 °C 30.3in /  1026.0hPa NE 7.6mph /  12.2km/h 8.7mph /  14.0km/h 98% 0in /  0.0mm
04:38 35.4 °F /  1.9 °C 35.1 °F /  1.7 °C 30.3in /  1026.0hPa NE 6.3mph /  10.1km/h 8.7mph /  14.0km/h 98% 0in /  0.0mm
04:43 35.4 °F /  1.9 °C 35.1 °F /  1.7 °C 30.3in /  1026.0hPa NE 6mph /  9.7km/h 8.7mph /  14.0km/h 98% 0in /  0.0mm
04:48 35.4 °F /  1.9 °C 34.9 °F /  1.6 °C 30.3in /  1026.0hPa NE 6.5mph /  10.5km/h 8.7mph /  14.0km/h 98% 0in /  0.0mm
04:53 35.4 °F /  1.9 °C 35.1 °F /  1.7 °C 30.3in /  1026.0hPa NE 5.8mph /  9.3km/h 8.7mph /  14.0km/h 98% 0in /  0.0mm
04:58 35.4 °F /  1.9 °C 34.9 °F /  1.6 °C 30.3in /  1026.0hPa NE 7.4mph /  11.9km/h 10.1mph /  16.3km/h 98% 0in /  0.0mm
05:03 35.4 °F /  1.9 °C 34.9 °F /  1.6 °C 30.3in /  1026.0hPa NE 5.4mph /  8.7km/h 10.1mph /  16.3km/h 98% 0in /  0.0mm
05:08 35.4 °F /  1.9 °C 34.9 °F /  1.6 °C 30.3in /  1026.0hPa NE 7.6mph /  12.2km/h 10.1mph /  16.3km/h 98% 0in /  0.0mm
05:13 35.4 °F /  1.9 °C 34.9 °F /  1.6 °C 30.3in /  1026.0hPa NE 5.8mph /  9.3km/h 8.5mph /  13.7km/h 98% 0in /  0.0mm
05:18 35.4 °F /  1.9 °C 34.9 °F /  1.6 °C 30.3in /  1026.0hPa NE 7.8mph /  12.6km/h 8.5mph /  13.7km/h 98% 0in /  0.0mm
05:23 35.4 °F /  1.9 °C 34.9 °F /  1.6 °C 30.3in /  1026.0hPa NE 8.5mph /  13.7km/h 8.5mph /  13.7km/h 98% 0in /  0.0mm
05:28 35.4 °F /  1.9 °C 34.9 °F /  1.6 °C 30.3in /  1026.0hPa NE 3.6mph /  5.8km/h 8.5mph /  13.7km/h 98% 0in /  0.0mm
05:33 35.4 °F /  1.9 °C 34.9 °F /  1.6 °C 30.3in /  1026.0hPa NNE 7.6mph /  12.2km/h 8.7mph /  14.0km/h 98% 0in /  0.0mm
05:38 35.2 °F /  1.8 °C 34.7 °F /  1.5 °C 30.3in /  1026.0hPa NE 7.4mph /  11.9km/h 8.7mph /  14.0km/h 98% 0in /  0.0mm
05:43 35.2 °F /  1.8 °C 34.7 °F /  1.5 °C 30.3in /  1026.0hPa NE 6.3mph /  10.1km/h 8.7mph /  14.0km/h 98% 0in /  0.0mm
05:48 35.2 °F /  1.8 °C 34.7 °F /  1.5 °C 30.3in /  1026.0hPa NE 5.4mph /  8.7km/h 8.9mph /  14.3km/h 98% 0in /  0.0mm
05:53 35.2 °F /  1.8 °C 34.7 °F /  1.5 °C 30.3in /  1026.0hPa NE 5.8mph /  9.3km/h 8.9mph /  14.3km/h 98% 0in /  0.0mm
05:58 35.2 °F /  1.8 °C 34.7 °F /  1.5 °C 30.3in /  1026.0hPa ENE 6.3mph /  10.1km/h 8.7mph /  14.0km/h 98% 0in /  0.0mm
06:03 35.2 °F /  1.8 °C 34.7 °F /  1.5 °C 30.3in /  1026.0hPa NE 6mph /  9.7km/h 8.7mph /  14.0km/h 98% 0in /  0.0mm
06:08 35.2 °F /  1.8 °C 34.7 °F /  1.5 °C 30.3in /  1026.0hPa NE 6.3mph /  10.1km/h 9.6mph /  15.4km/h 98% 0in /  0.0mm
06:13 35.2 °F /  1.8 °C 34.7 °F /  1.5 °C 30.3in /  1026.0hPa NE 6mph /  9.7km/h 9.6mph /  15.4km/h 98% 0in /  0.0mm
06:18 35.2 °F /  1.8 °C 34.7 °F /  1.5 °C 30.3in /  1026.0hPa NNE 6.3mph /  10.1km/h 7.8mph /  12.6km/h 98% 0in /  0.0mm
06:23 35.2 °F /  1.8 °C 34.7 °F /  1.5 °C 30.3in /  1026.0hPa NE 5.6mph /  9.0km/h 7.8mph /  12.6km/h 98% 0in /  0.0mm
06:28 35.1 °F /  1.7 °C 34.5 °F /  1.4 °C 30.3in /  1026.0hPa NE 5.4mph /  8.7km/h 8.7mph /  14.0km/h 98% 0in /  0.0mm
06:33 35.1 °F /  1.7 °C 34.5 °F /  1.4 °C 30.3in /  1026.0hPa NNE 6.5mph /  10.5km/h 8.7mph /  14.0km/h 98% 0in /  0.0mm
06:38 35.2 °F /  1.8 °C 34.7 °F /  1.5 °C 30.3in /  1026.0hPa NE 6.5mph /  10.5km/h 8.5mph /  13.7km/h 98% 0in /  0.0mm
06:43 35.2 °F /  1.8 °C 34.7 °F /  1.5 °C 30.3in /  1026.0hPa NE 5.6mph /  9.0km/h 7.8mph /  12.6km/h 98% 0in /  0.0mm
06:48 35.2 °F /  1.8 °C 34.7 °F /  1.5 °C 30.3in /  1026.0hPa NNE 6mph /  9.7km/h 7.8mph /  12.6km/h 98% 0in /  0.0mm
06:53 35.2 °F /  1.8 °C 34.7 °F /  1.5 °C 30.3in /  1026.0hPa NE 5.8mph /  9.3km/h 7.8mph /  12.6km/h 98% 0in /  0.0mm
06:58 35.1 °F /  1.7 °C 34.5 °F /  1.4 °C 30.3in /  1026.0hPa NE 6mph /  9.7km/h 8.7mph /  14.0km/h 98% 0in /  0.0mm
07:03 35.2 °F /  1.8 °C 34.7 °F /  1.5 °C 30.3in /  1026.0hPa NE 4.3mph /  6.9km/h 8.7mph /  14.0km/h 98% 0in /  0.0mm
07:08 35.2 °F /  1.8 °C 34.7 °F /  1.5 °C 30.3in /  1026.0hPa NNE 4.9mph /  7.9km/h 7.6mph /  12.2km/h 98% 0in /  0.0mm
07:13 35.2 °F /  1.8 °C 34.7 °F /  1.5 °C 30.3in /  1026.0hPa NNE 3.8mph /  6.1km/h 7.4mph /  11.9km/h 98% 0in /  0.0mm
07:18 35.2 °F /  1.8 °C 34.7 °F /  1.5 °C 30.3in /  1026.0hPa NE 5.4mph /  8.7km/h 8.1mph /  13.0km/h 98% 0in /  0.0mm
07:23 35.2 °F /  1.8 °C 34.7 °F /  1.5 °C 30.3in /  1026.0hPa NNW 7.6mph /  12.2km/h 8.1mph /  13.0km/h 98% 0in /  0.0mm
07:28 35.2 °F /  1.8 °C 34.7 °F /  1.5 °C 30.3in /  1026.0hPa NNE 6.3mph /  10.1km/h 8.1mph /  13.0km/h 98% 0in /  0.0mm
07:33 35.2 °F /  1.8 °C 34.7 °F /  1.5 °C 30.3in /  1026.0hPa NE 6mph /  9.7km/h 7.6mph /  12.2km/h 98% 0in /  0.0mm
07:38 35.2 °F /  1.8 °C 34.7 °F /  1.5 °C 30.3in /  1026.0hPa NE 4.9mph /  7.9km/h 7.4mph /  11.9km/h 98% 0in /  0.0mm
07:43 35.2 °F /  1.8 °C 34.7 °F /  1.5 °C 30.3in /  1026.0hPa NNE 4.3mph /  6.9km/h 7.4mph /  11.9km/h 98% 0in /  0.0mm
07:48 35.2 °F /  1.8 °C 34.7 °F /  1.5 °C 30.3in /  1026.0hPa NE 4mph /  6.4km/h 8.1mph /  13.0km/h 98% 0in /  0.0mm
07:53 35.1 °F /  1.7 °C 34.5 °F /  1.4 °C 30.3in /  1026.0hPa NNE 4.7mph /  7.6km/h 8.1mph /  13.0km/h 98% 0in /  0.0mm
07:58 35.1 °F /  1.7 °C 34.5 °F /  1.4 °C 30.3in /  1026.0hPa NE 6.5mph /  10.5km/h 7.8mph /  12.6km/h 98% 0in /  0.0mm
08:03 35.2 °F /  1.8 °C 34.7 °F /  1.5 °C 30.3in /  1026.0hPa North 5.6mph /  9.0km/h 7.6mph /  12.2km/h 98% 0in /  0.0mm
08:08 35.1 °F /  1.7 °C 34.5 °F /  1.4 °C 30.3in /  1026.0hPa NNE 7.6mph /  12.2km/h 7.6mph /  12.2km/h 98% 0in /  0.0mm
08:13 35.1 °F /  1.7 °C 34.5 °F /  1.4 °C 30.3in /  1026.0hPa NE 5.6mph /  9.0km/h 8.1mph /  13.0km/h 98% 0in /  0.0mm
08:18 35.1 °F /  1.7 °C 34.5 °F /  1.4 °C 30.3in /  1026.0hPa NE 4mph /  6.4km/h 8.1mph /  13.0km/h 98% 0in /  0.0mm
08:22 35.2 °F /  1.8 °C 34.7 °F /  1.5 °C 30.3in /  1026.0hPa NE 4.9mph /  7.9km/h 7.6mph /  12.2km/h 98% 0in /  0.0mm
08:27 35.1 °F /  1.7 °C 34.5 °F /  1.4 °C 30.3in /  1026.0hPa NNE 6mph /  9.7km/h 8.1mph /  13.0km/h 98% 0in /  0.0mm
08:28 35.1 °F /  1.7 °C 34.5 °F /  1.4 °C 30.3in /  1026.0hPa NE 6.5mph /  10.5km/h 8.1mph /  13.0km/h 98% 0in /  0.0mm
08:33 35.1 °F /  1.7 °C 34.5 °F /  1.4 °C 30.3in /  1026.0hPa NNE 6.5mph /  10.5km/h 8.5mph /  13.7km/h 98% 0in /  0.0mm
08:38 35.1 °F /  1.7 °C 34.5 °F /  1.4 °C 30.3in /  1026.0hPa NE 6.3mph /  10.1km/h 8.5mph /  13.7km/h 98% 0in /  0.0mm
08:43 35.1 °F /  1.7 °C 34.5 °F /  1.4 °C 30.3in /  1026.0hPa NE 7.6mph /  12.2km/h 8.5mph /  13.7km/h 98% 0in /  0.0mm
08:48 35.1 °F /  1.7 °C 34.5 °F /  1.4 °C 30.3in /  1026.0hPa NE 5.6mph /  9.0km/h 8.5mph /  13.7km/h 98% 0in /  0.0mm
08:53 35.1 °F /  1.7 °C 34.5 °F /  1.4 °C 30.3in /  1026.0hPa NE 5.8mph /  9.3km/h 8.1mph /  13.0km/h 98% 0in /  0.0mm
08:58 35.1 °F /  1.7 °C 34.5 °F /  1.4 °C 30.3in /  1026.0hPa NE 6.3mph /  10.1km/h 8.1mph /  13.0km/h 98% 0in /  0.0mm
09:03 35.1 °F /  1.7 °C 34.5 °F /  1.4 °C 30.3in /  1026.0hPa NE 6.3mph /  10.1km/h 8.1mph /  13.0km/h 98% 0in /  0.0mm
09:08 35.1 °F /  1.7 °C 34.5 °F /  1.4 °C 30.3in /  1027.0hPa ENE 4.7mph /  7.6km/h 7.6mph /  12.2km/h 98% 0in /  0.0mm
09:13 35.2 °F /  1.8 °C 34.7 °F /  1.5 °C 30.3in /  1027.0hPa NE 5.8mph /  9.3km/h 7.6mph /  12.2km/h 98% 0in /  0.0mm
09:18 35.2 °F /  1.8 °C 34.7 °F /  1.5 °C 30.3in /  1027.0hPa NE 6mph /  9.7km/h 10.1mph /  16.3km/h 98% 0in /  0.0mm
09:23 35.2 °F /  1.8 °C 34.7 °F /  1.5 °C 30.3in /  1026.0hPa NE 6.5mph /  10.5km/h 10.1mph /  16.3km/h 98% 0in /  0.0mm
09:28 35.2 °F /  1.8 °C 34.7 °F /  1.5 °C 30.3in /  1026.0hPa NE 5.6mph /  9.0km/h 7.8mph /  12.6km/h 98% 0in /  0.0mm
09:33 35.1 °F /  1.7 °C 34.5 °F /  1.4 °C 30.3in /  1026.0hPa NE 6.7mph /  10.8km/h 8.7mph /  14.0km/h 98% 0in /  0.0mm
09:38 35.1 °F /  1.7 °C 34.5 °F /  1.4 °C 30.3in /  1026.0hPa NNE 3.8mph /  6.1km/h 8.7mph /  14.0km/h 98% 0in /  0.0mm
09:43 35.1 °F /  1.7 °C 34.5 °F /  1.4 °C 30.3in /  1026.0hPa NE 6.3mph /  10.1km/h 8.7mph /  14.0km/h 98% 0in /  0.0mm
09:48 35.1 °F /  1.7 °C 34.5 °F /  1.4 °C 30.3in /  1026.0hPa ENE 6.5mph /  10.5km/h 8.7mph /  14.0km/h 98% 0in /  0.0mm
09:53 35.1 °F /  1.7 °C 34.5 °F /  1.4 °C 30.3in /  1026.0hPa ENE 5.4mph /  8.7km/h 8.1mph /  13.0km/h 98% 0in /  0.0mm
09:58 35.1 °F /  1.7 °C 34.5 °F /  1.4 °C 30.3in /  1026.0hPa ENE 4.7mph /  7.6km/h 7.8mph /  12.6km/h 98% 0in /  0.0mm
10:03 35.1 °F /  1.7 °C 34.5 °F /  1.4 °C 30.3in /  1026.0hPa NNE 7.4mph /  11.9km/h 8.5mph /  13.7km/h 98% 0in /  0.0mm
10:08 35.1 °F /  1.7 °C 34.5 °F /  1.4 °C 30.3in /  1026.0hPa NNE 5.6mph /  9.0km/h 8.5mph /  13.7km/h 98% 0in /  0.0mm
10:13 35.1 °F /  1.7 °C 34.5 °F /  1.4 °C 30.3in /  1026.0hPa NE 6.5mph /  10.5km/h 8.1mph /  13.0km/h 98% 0in /  0.0mm
10:18 34.9 °F /  1.6 °C 34.3 °F /  1.3 °C 30.3in /  1026.0hPa NE 5.4mph /  8.7km/h 9.2mph /  14.8km/h 98% 0in /  0.0mm
10:23 34.9 °F /  1.6 °C 34.3 °F /  1.3 °C 30.3in /  1026.0hPa NE 7.4mph /  11.9km/h 9.2mph /  14.8km/h 98% 0in /  0.0mm
10:28 34.9 °F /  1.6 °C 34.3 °F /  1.3 °C 30.3in /  1026.0hPa NE 5.8mph /  9.3km/h 8.7mph /  14.0km/h 98% 0in /  0.0mm
10:33 35.1 °F /  1.7 °C 34.5 °F /  1.4 °C 30.3in /  1026.0hPa NE 6.3mph /  10.1km/h 8.7mph /  14.0km/h 98% 0in /  0.0mm
10:38 35.1 °F /  1.7 °C 34.5 °F /  1.4 °C 30.3in /  1026.0hPa NE 8.5mph /  13.7km/h 8.7mph /  14.0km/h 98% 0in /  0.0mm
10:43 35.1 °F /  1.7 °C 34.5 °F /  1.4 °C 30.3in /  1026.0hPa NNE 7.6mph /  12.2km/h 8.5mph /  13.7km/h 98% 0in /  0.0mm
10:48 35.1 °F /  1.7 °C 34.5 °F /  1.4 °C 30.3in /  1026.0hPa NE 7.6mph /  12.2km/h 8.7mph /  14.0km/h 98% 0in /  0.0mm
10:53 35.2 °F /  1.8 °C 34.7 °F /  1.5 °C 30.3in /  1026.0hPa NE 4.9mph /  7.9km/h 8.7mph /  14.0km/h 98% 0in /  0.0mm
10:58 35.4 °F /  1.9 °C 34.9 °F /  1.6 °C 30.3in /  1026.0hPa NE 5.8mph /  9.3km/h 8.1mph /  13.0km/h 98% 0in /  0.0mm
11:03 35.4 °F /  1.9 °C 34.9 °F /  1.6 °C 30.3in /  1026.0hPa NE 7.8mph /  12.6km/h 7.8mph /  12.6km/h 98% 0in /  0.0mm
11:08 35.4 °F /  1.9 °C 34.9 °F /  1.6 °C 30.3in /  1026.0hPa NE 6.5mph /  10.5km/h 7.8mph /  12.6km/h 98% 0in /  0.0mm
11:13 35.4 °F /  1.9 °C 35.1 °F /  1.7 °C 30.3in /  1026.0hPa NNE 5.8mph /  9.3km/h 8.1mph /  13.0km/h 98% 0in /  0.0mm
11:18 35.4 °F /  1.9 °C 35.1 °F /  1.7 °C 30.3in /  1026.0hPa ENE 7.4mph /  11.9km/h 8.7mph /  14.0km/h 98% 0in /  0.0mm
11:23 35.8 °F /  2.1 °C 35.2 °F /  1.8 °C 30.3in /  1026.0hPa ENE 6.3mph /  10.1km/h 8.7mph /  14.0km/h 98% 0in /  0.0mm
11:28 35.8 °F /  2.1 °C 35.2 °F /  1.8 °C 30.3in /  1026.0hPa NE 7.2mph /  11.6km/h 8.7mph /  14.0km/h 98% 0in /  0.0mm
11:33 36 °F /  2.2 °C 35.4 °F /  1.9 °C 30.3in /  1026.0hPa East 6.5mph /  10.5km/h 8.7mph /  14.0km/h 98% 0in /  0.0mm
11:38 36 °F /  2.2 °C 35.4 °F /  1.9 °C 30.3in /  1026.0hPa ENE 6mph /  9.7km/h 8.5mph /  13.7km/h 98% 0in /  0.0mm
11:43 36 °F /  2.2 °C 35.4 °F /  1.9 °C 30.3in /  1026.0hPa NNE 5.6mph /  9.0km/h 7.4mph /  11.9km/h 98% 0in /  0.0mm
11:48 36 °F /  2.2 °C 35.4 °F /  1.9 °C 30.3in /  1026.0hPa NE 3.8mph /  6.1km/h 7.2mph /  11.6km/h 98% 0in /  0.0mm
11:53 36 °F /  2.2 °C 35.4 °F /  1.9 °C 30.3in /  1026.0hPa NE 5.6mph /  9.0km/h 7.6mph /  12.2km/h 98% 0in /  0.0mm
11:58 36.1 °F /  2.3 °C 35.4 °F /  1.9 °C 30.3in /  1026.0hPa ENE 6.3mph /  10.1km/h 7.6mph /  12.2km/h 98% 0in /  0.0mm
12:03 36.1 °F /  2.3 °C 35.4 °F /  1.9 °C 30.3in /  1026.0hPa NE 5.6mph /  9.0km/h 7.2mph /  11.6km/h 98% 0in /  0.0mm
12:08 36.1 °F /  2.3 °C 35.8 °F /  2.1 °C 30.3in /  1026.0hPa NE 6mph /  9.7km/h 6.5mph /  10.5km/h 98% 0in /  0.0mm
12:13 36.1 °F /  2.3 °C 35.8 °F /  2.1 °C 30.3in /  1026.0hPa NE 4.7mph /  7.6km/h 6.5mph /  10.5km/h 98% 0in /  0.0mm
12:18 36.1 °F /  2.3 °C 35.8 °F /  2.1 °C 30.3in /  1026.0hPa NNE 6.3mph /  10.1km/h 6.5mph /  10.5km/h 98% 0in /  0.0mm
12:23 36.1 °F /  2.3 °C 35.8 °F /  2.1 °C 30.3in /  1026.0hPa East 5.4mph /  8.7km/h 6.7mph /  10.8km/h 98% 0in /  0.0mm
12:28 36.1 °F /  2.3 °C 35.8 °F /  2.1 °C 30.3in /  1026.0hPa ENE 6mph /  9.7km/h 7.4mph /  11.9km/h 98% 0in /  0.0mm
12:33 36.1 °F /  2.3 °C 35.8 °F /  2.1 °C 30.3in /  1026.0hPa ENE 3.6mph /  5.8km/h 7.4mph /  11.9km/h 98% 0in /  0.0mm
12:38 36.1 °F /  2.3 °C 35.8 °F /  2.1 °C 30.3in /  1024.9hPa ENE 3.6mph /  5.8km/h 6.3mph /  10.1km/h 98% 0in /  0.0mm
12:43 36.1 °F /  2.3 °C 35.8 °F /  2.1 °C 30.3in /  1024.9hPa ENE 5.4mph /  8.7km/h 6.3mph /  10.1km/h 98% 0in /  0.0mm
12:48 36.3 °F /  2.4 °C 36 °F /  2.2 °C 30.3in /  1024.9hPa ENE 5.8mph /  9.3km/h 6.3mph /  10.1km/h 98% 0in /  0.0mm
12:53 36.3 °F /  2.4 °C 36 °F /  2.2 °C 30.3in /  1024.9hPa NE 6mph /  9.7km/h 6.3mph /  10.1km/h 98% 0in /  0.0mm
12:58 36.7 °F /  2.6 °C 36.1 °F /  2.3 °C 30.3in /  1024.9hPa NE 4.3mph /  6.9km/h 6.3mph /  10.1km/h 98% 0in /  0.0mm
13:03 36.7 °F /  2.6 °C 36.1 °F /  2.3 °C 30.3in /  1024.9hPa NE 5.6mph /  9.0km/h 6.5mph /  10.5km/h 98% 0in /  0.0mm
13:08 36.7 °F /  2.6 °C 36.1 °F /  2.3 °C 30.3in /  1024.9hPa ENE 3.8mph /  6.1km/h 6.7mph /  10.8km/h 98% 0in /  0.0mm
13:13 36.9 °F /  2.7 °C 36.3 °F /  2.4 °C 30.3in /  1024.9hPa NNE 6mph /  9.7km/h 6.7mph /  10.8km/h 98% 0in /  0.0mm
13:18 36.9 °F /  2.7 °C 36.3 °F /  2.4 °C 30.3in /  1024.9hPa NE 4.5mph /  7.2km/h 6mph /  9.7km/h 98% 0in /  0.0mm
13:23 36.9 °F /  2.7 °C 36.3 °F /  2.4 °C 30.3in /  1024.9hPa NE 3.6mph /  5.8km/h 6mph /  9.7km/h 98% 0in /  0.0mm
13:28 36.9 °F /  2.7 °C 36.3 °F /  2.4 °C 30.3in /  1024.9hPa NNE 3.6mph /  5.8km/h 6.3mph /  10.1km/h 98% 0in /  0.0mm
13:33 36.9 °F /  2.7 °C 36.3 °F /  2.4 °C 30.3in /  1024.9hPa NE 3.1mph /  5.0km/h 6.5mph /  10.5km/h 98% 0in /  0.0mm
13:38 36.9 °F /  2.7 °C 36.3 °F /  2.4 °C 30.3in /  1024.9hPa NE 6mph /  9.7km/h 7.6mph /  12.2km/h 98% 0in /  0.0mm
13:43 36.9 °F /  2.7 °C 36.3 °F /  2.4 °C 30.3in /  1024.9hPa NE 5.6mph /  9.0km/h 7.6mph /  12.2km/h 98% 0in /  0.0mm
13:48 36.9 °F /  2.7 °C 36.3 °F /  2.4 °C 30.3in /  1024.9hPa NE 3.1mph /  5.0km/h 6.9mph /  11.1km/h 98% 0in /  0.0mm
13:53 36.9 °F /  2.7 °C 36.3 °F /  2.4 °C 30.3in /  1024.9hPa NE 3.8mph /  6.1km/h 6.9mph /  11.1km/h 98% 0in /  0.0mm
13:58 36.9 °F /  2.7 °C 36.3 °F /  2.4 °C 30.3in /  1024.9hPa NE 6.3mph /  10.1km/h 6.5mph /  10.5km/h 98% 0in /  0.0mm
14:03 36.9 °F /  2.7 °C 36.3 °F /  2.4 °C 30.3in /  1024.9hPa NE 4mph /  6.4km/h 7.4mph /  11.9km/h 98% 0in /  0.0mm
14:08 37 °F /  2.8 °C 36.7 °F /  2.6 °C 30.3in /  1024.9hPa ENE 4.3mph /  6.9km/h 7.4mph /  11.9km/h 98% 0in /  0.0mm
14:13 37.2 °F /  2.9 °C 36.9 °F /  2.7 °C 30.3in /  1024.9hPa NNE 4.9mph /  7.9km/h 7.2mph /  11.6km/h 98% 0in /  0.0mm
14:18 37.2 °F /  2.9 °C 36.9 °F /  2.7 °C 30.3in /  1024.9hPa ENE 4.3mph /  6.9km/h 7.2mph /  11.6km/h 98% 0in /  0.0mm
14:23 37.2 °F /  2.9 °C 36.9 °F /  2.7 °C 30.3in /  1024.9hPa ENE 4.5mph /  7.2km/h 6.3mph /  10.1km/h 98% 0in /  0.0mm
14:28 37.2 °F /  2.9 °C 36.9 °F /  2.7 °C 30.3in /  1024.9hPa NNE 6.5mph /  10.5km/h 7.6mph /  12.2km/h 98% 0in /  0.0mm
14:33 37.2 °F /  2.9 °C 36.9 °F /  2.7 °C 30.3in /  1024.9hPa NE 5.4mph /  8.7km/h 7.6mph /  12.2km/h 98% 0in /  0.0mm
14:38 37 °F /  2.8 °C 36.7 °F /  2.6 °C 30.3in /  1024.9hPa NE 4.3mph /  6.9km/h 7.6mph /  12.2km/h 98% 0in /  0.0mm
14:43 37 °F /  2.8 °C 36.7 °F /  2.6 °C 30.3in /  1024.9hPa NE 7.6mph /  12.2km/h 9.2mph /  14.8km/h 98% 0in /  0.0mm
14:48 36.9 °F /  2.7 °C 36.3 °F /  2.4 °C 30.3in /  1024.9hPa NE 7.8mph /  12.6km/h 9.2mph /  14.8km/h 98% 0in /  0.0mm
14:53 36.9 °F /  2.7 °C 36.3 °F /  2.4 °C 30.3in /  1024.9hPa NE 4.3mph /  6.9km/h 8.5mph /  13.7km/h 98% 0in /  0.0mm
14:58 36.9 °F /  2.7 °C 36.3 °F /  2.4 °C 30.3in /  1024.9hPa NE 6mph /  9.7km/h 8.5mph /  13.7km/h 98% 0in /  0.0mm
15:03 36.9 °F /  2.7 °C 36.3 °F /  2.4 °C 30.3in /  1024.9hPa ENE 6mph /  9.7km/h 9.4mph /  15.1km/h 98% 0in /  0.0mm
15:08 36.9 °F /  2.7 °C 36.3 °F /  2.4 °C 30.3in /  1024.9hPa NNE 5.6mph /  9.0km/h 9.4mph /  15.1km/h 98% 0in /  0.0mm
15:13 36.9 °F /  2.7 °C 36.3 °F /  2.4 °C 30.3in /  1024.9hPa NE 5.6mph /  9.0km/h 8.7mph /  14.0km/h 98% 0in /  0.0mm
15:18 36.9 °F /  2.7 °C 36.3 °F /  2.4 °C 30.3in /  1024.9hPa NE 5.8mph /  9.3km/h 9.4mph /  15.1km/h 98% 0in /  0.0mm
15:23 36.9 °F /  2.7 °C 36.3 °F /  2.4 °C 30.3in /  1024.9hPa NE 4.3mph /  6.9km/h 9.4mph /  15.1km/h 98% 0in /  0.0mm
15:28 36.9 °F /  2.7 °C 36.3 °F /  2.4 °C 30.3in /  1024.9hPa NE 6mph /  9.7km/h 8.1mph /  13.0km/h 98% 0in /  0.0mm
15:33 36.9 °F /  2.7 °C 36.3 °F /  2.4 °C 30.3in /  1024.9hPa ENE 7.4mph /  11.9km/h 8.1mph /  13.0km/h 98% 0in /  0.0mm
15:38 36.9 °F /  2.7 °C 36.3 °F /  2.4 °C 30.2in /  1023.9hPa NE 5.8mph /  9.3km/h 7.6mph /  12.2km/h 98% 0in /  0.0mm
15:43 36.9 °F /  2.7 °C 36.3 °F /  2.4 °C 30.2in /  1023.9hPa NE 5.8mph /  9.3km/h 7.6mph /  12.2km/h 98% 0in /  0.0mm
15:48 36.9 °F /  2.7 °C 36.3 °F /  2.4 °C 30.2in /  1023.9hPa ENE 5.8mph /  9.3km/h 8.5mph /  13.7km/h 98% 0in /  0.0mm
15:53 36.9 °F /  2.7 °C 36.3 °F /  2.4 °C 30.2in /  1023.9hPa NNE 6.5mph /  10.5km/h 8.7mph /  14.0km/h 98% 0in /  0.0mm
15:58 36.9 °F /  2.7 °C 36.3 °F /  2.4 °C 30.2in /  1023.9hPa East 4.3mph /  6.9km/h 8.7mph /  14.0km/h 98% 0in /  0.0mm
16:03 36.9 °F /  2.7 °C 36.3 °F /  2.4 °C 30.2in /  1023.9hPa ENE 6.5mph /  10.5km/h 8.5mph /  13.7km/h 98% 0in /  0.0mm
16:08 36.9 °F /  2.7 °C 36.3 °F /  2.4 °C 30.2in /  1022.9hPa NE 4mph /  6.4km/h 8.1mph /  13.0km/h 98% 0in /  0.0mm
16:13 36.9 °F /  2.7 °C 36.3 °F /  2.4 °C 30.2in /  1022.9hPa ENE 6.5mph /  10.5km/h 6.9mph /  11.1km/h 98% 0in /  0.0mm
16:18 36.9 °F /  2.7 °C 36.3 °F /  2.4 °C 30.2in /  1022.9hPa ENE 3.8mph /  6.1km/h 7.2mph /  11.6km/h 98% 0in /  0.0mm
16:23 36.9 °F /  2.7 °C 36.3 °F /  2.4 °C 30.2in /  1022.9hPa ENE 4mph /  6.4km/h 7.2mph /  11.6km/h 98% 0in /  0.0mm
16:28 37 °F /  2.8 °C 36.7 °F /  2.6 °C 30.2in /  1022.9hPa ENE 6.9mph /  11.1km/h 7.2mph /  11.6km/h 98% 0in /  0.0mm
16:33 37 °F /  2.8 °C 36.7 °F /  2.6 °C 30.2in /  1022.9hPa NE 5.6mph /  9.0km/h 8.7mph /  14.0km/h 98% 0in /  0.0mm
16:38 37 °F /  2.8 °C 36.7 °F /  2.6 °C 30.2in /  1022.9hPa East 5.4mph /  8.7km/h 8.7mph /  14.0km/h 98% 0in /  0.0mm
16:43 37 °F /  2.8 °C 36.7 °F /  2.6 °C 30.2in /  1022.9hPa ENE 4mph /  6.4km/h 7.6mph /  12.2km/h 98% 0in /  0.0mm
16:48 37 °F /  2.8 °C 36.7 °F /  2.6 °C 30.2in /  1022.9hPa NE 4.9mph /  7.9km/h 7.6mph /  12.2km/h 98% 0in /  0.0mm
16:53 36.9 °F /  2.7 °C 36.3 °F /  2.4 °C 30.2in /  1022.9hPa East 3.4mph /  5.5km/h 7.6mph /  12.2km/h 98% 0in /  0.0mm
16:58 36.9 °F /  2.7 °C 36.3 °F /  2.4 °C 30.2in /  1022.9hPa ENE 6.3mph /  10.1km/h 6.7mph /  10.8km/h 98% 0in /  0.0mm
17:03 36.9 °F /  2.7 °C 36.3 °F /  2.4 °C 30.2in /  1022.9hPa ENE 4.3mph /  6.9km/h 7.6mph /  12.2km/h 98% 0in /  0.0mm
17:08 36.9 °F /  2.7 °C 36.3 °F /  2.4 °C 30.2in /  1022.9hPa NE 4.3mph /  6.9km/h 7.6mph /  12.2km/h 98% 0in /  0.0mm
17:13 36.9 °F /  2.7 °C 36.3 °F /  2.4 °C 30.2in /  1022.9hPa ESE 4.7mph /  7.6km/h 8.1mph /  13.0km/h 98% 0in /  0.0mm
17:18 36.9 °F /  2.7 °C 36.3 °F /  2.4 °C 30.2in /  1022.9hPa NE 3.1mph /  5.0km/h 8.1mph /  13.0km/h 98% 0in /  0.0mm
17:23 36.9 °F /  2.7 °C 36.3 °F /  2.4 °C 30.2in /  1022.9hPa ESE 3.8mph /  6.1km/h 7.4mph /  11.9km/h 98% 0in /  0.0mm
17:28 36.9 °F /  2.7 °C 36.3 °F /  2.4 °C 30.2in /  1022.9hPa NE 5.4mph /  8.7km/h 8.7mph /  14.0km/h 98% 0in /  0.0mm
17:33 36.7 °F /  2.6 °C 36.1 °F /  2.3 °C 30.2in /  1022.9hPa East 5.6mph /  9.0km/h 8.7mph /  14.0km/h 98% 0in /  0.0mm
17:38 36.7 °F /  2.6 °C 36.1 °F /  2.3 °C 30.2in /  1022.9hPa ENE 5.8mph /  9.3km/h 7.2mph /  11.6km/h 98% 0in /  0.0mm
17:43 36.7 °F /  2.6 °C 36.1 °F /  2.3 °C 30.2in /  1022.9hPa NE 4.9mph /  7.9km/h 6.9mph /  11.1km/h 98% 0in /  0.0mm
17:48 36.7 °F /  2.6 °C 36.1 °F /  2.3 °C 30.2in /  1022.9hPa ENE 4.9mph /  7.9km/h 6.3mph /  10.1km/h 98% 0in /  0.0mm
17:53 36.7 °F /  2.6 °C 36.1 °F /  2.3 °C 30.2in /  1022.9hPa East 5.4mph /  8.7km/h 7.2mph /  11.6km/h 98% 0in /  0.0mm
17:58 36.3 °F /  2.4 °C 36 °F /  2.2 °C 30.2in /  1022.9hPa East 5.4mph /  8.7km/h 7.2mph /  11.6km/h 98% 0in /  0.0mm
18:03 36.3 °F /  2.4 °C 36 °F /  2.2 °C 30.2in /  1022.9hPa ENE 5.6mph /  9.0km/h 8.1mph /  13.0km/h 98% 0in /  0.0mm
18:08 36.3 °F /  2.4 °C 36 °F /  2.2 °C 30.2in /  1022.9hPa East 5.8mph /  9.3km/h 8.1mph /  13.0km/h 98% 0in /  0.0mm
18:13 36.1 °F /  2.3 °C 35.8 °F /  2.1 °C 30.2in /  1022.9hPa East 4mph /  6.4km/h 7.2mph /  11.6km/h 98% 0in /  0.0mm
18:18 36.1 °F /  2.3 °C 35.8 °F /  2.1 °C 30.2in /  1022.9hPa ENE 6.5mph /  10.5km/h 7.6mph /  12.2km/h 98% 0in /  0.0mm
18:23 36.1 °F /  2.3 °C 35.8 °F /  2.1 °C 30.2in /  1022.9hPa ENE 3.4mph /  5.5km/h 7.6mph /  12.2km/h 98% 0in /  0.0mm
18:28 36.1 °F /  2.3 °C 35.8 °F /  2.1 °C 30.2in /  1022.9hPa East 4.3mph /  6.9km/h 6.9mph /  11.1km/h 98% 0in /  0.0mm
18:33 36.1 °F /  2.3 °C 35.8 °F /  2.1 °C 30.2in /  1022.9hPa East 4.9mph /  7.9km/h 5.8mph /  9.3km/h 98% 0in /  0.0mm
18:38 36.1 °F /  2.3 °C 35.8 °F /  2.1 °C 30.2in /  1022.9hPa ENE 8.1mph /  13.0km/h 8.1mph /  13.0km/h 98% 0in /  0.0mm
18:43 36.1 °F /  2.3 °C 35.4 °F /  1.9 °C 30.2in /  1022.9hPa ESE 7.4mph /  11.9km/h 8.1mph /  13.0km/h 98% 0in /  0.0mm
18:48 36.1 °F /  2.3 °C 35.4 °F /  1.9 °C 30.2in /  1022.9hPa ENE 6mph /  9.7km/h 8.5mph /  13.7km/h 98% 0in /  0.0mm
18:53 36 °F /  2.2 °C 35.4 °F /  1.9 °C 30.2in /  1022.9hPa ENE 2.7mph /  4.3km/h 8.5mph /  13.7km/h 98% 0in /  0.0mm
18:58 36 °F /  2.2 °C 35.4 °F /  1.9 °C 30.2in /  1022.9hPa NE 4.9mph /  7.9km/h 7.8mph /  12.6km/h 98% 0in /  0.0mm
19:03 35.8 °F /  2.1 °C 35.2 °F /  1.8 °C 30.2in /  1022.9hPa North 4.9mph /  7.9km/h 7.6mph /  12.2km/h 98% 0in /  0.0mm
19:06 35.8 °F /  2.1 °C 35.2 °F /  1.8 °C 30.2in /  1022.9hPa East 4.3mph /  6.9km/h 7.6mph /  12.2km/h 98% 0in /  0.0mm
19:11 35.8 °F /  2.1 °C 35.2 °F /  1.8 °C 30.2in /  1022.9hPa East 7.4mph /  11.9km/h 8.7mph /  14.0km/h 98% 0in /  0.0mm
19:16 35.4 °F /  1.9 °C 35.1 °F /  1.7 °C 30.2in /  1022.9hPa East 6mph /  9.7km/h 8.7mph /  14.0km/h 98% 0in /  0.0mm
19:21 35.4 °F /  1.9 °C 35.1 °F /  1.7 °C 30.2in /  1022.9hPa East 5.6mph /  9.0km/h 8.1mph /  13.0km/h 98% 0in /  0.0mm
19:26 35.4 °F /  1.9 °C 34.9 °F /  1.6 °C 30.2in /  1022.9hPa East 4mph /  6.4km/h 8.1mph /  13.0km/h 98% 0in /  0.0mm
19:31 35.4 °F /  1.9 °C 34.9 °F /  1.6 °C 30.2in /  1022.9hPa East 5.6mph /  9.0km/h 6.5mph /  10.5km/h 98% 0in /  0.0mm
19:36 35.4 °F /  1.9 °C 34.9 °F /  1.6 °C 30.2in /  1022.9hPa East 4mph /  6.4km/h 6.5mph /  10.5km/h 98% 0in /  0.0mm
19:41 35.4 °F /  1.9 °C 34.9 °F /  1.6 °C 30.2in /  1022.9hPa East 5.4mph /  8.7km/h 6.5mph /  10.5km/h 98% 0in /  0.0mm
19:46 35.4 °F /  1.9 °C 34.9 °F /  1.6 °C 30.2in /  1022.9hPa ENE 5.8mph /  9.3km/h 6.5mph /  10.5km/h 98% 0in /  0.0mm
19:51 35.4 °F /  1.9 °C 34.9 °F /  1.6 °C 30.2in /  1022.9hPa East 2.7mph /  4.3km/h 6.5mph /  10.5km/h 98% 0in /  0.0mm
19:56 35.4 °F /  1.9 °C 34.9 °F /  1.6 °C 30.2in /  1022.9hPa East 4mph /  6.4km/h 5.8mph /  9.3km/h 98% 0in /  0.0mm
20:01 35.2 °F /  1.8 °C 34.7 °F /  1.5 °C 30.2in /  1022.9hPa East 5.4mph /  8.7km/h 7.2mph /  11.6km/h 98% 0in /  0.0mm
20:06 35.2 °F /  1.8 °C 34.7 °F /  1.5 °C 30.2in /  1022.9hPa ENE 4.3mph /  6.9km/h 7.6mph /  12.2km/h 98% 0in /  0.0mm
20:11 35.2 °F /  1.8 °C 34.7 °F /  1.5 °C 30.2in /  1022.9hPa ESE 3.1mph /  5.0km/h 7.6mph /  12.2km/h 98% 0in /  0.0mm
20:16 35.2 °F /  1.8 °C 34.7 °F /  1.5 °C 30.2in /  1022.9hPa ESE 4.9mph /  7.9km/h 6mph /  9.7km/h 98% 0in /  0.0mm
20:21 35.2 °F /  1.8 °C 34.7 °F /  1.5 °C 30.2in /  1022.9hPa ENE 2.9mph /  4.7km/h 5.8mph /  9.3km/h 98% 0in /  0.0mm
20:26 35.2 °F /  1.8 °C 34.7 °F /  1.5 °C 30.2in /  1022.9hPa ENE 4mph /  6.4km/h 6mph /  9.7km/h 98% 0in /  0.0mm
20:31 35.4 °F /  1.9 °C 34.9 °F /  1.6 °C 30.2in /  1022.9hPa East 4mph /  6.4km/h 6mph /  9.7km/h 98% 0in /  0.0mm
20:35 35.4 °F /  1.9 °C 34.9 °F /  1.6 °C 30.2in /  1022.9hPa NE 6.3mph /  10.1km/h 6.5mph /  10.5km/h 98% 0in /  0.0mm
20:41 35.2 °F /  1.8 °C 34.7 °F /  1.5 °C 30.2in /  1022.9hPa ENE 6.3mph /  10.1km/h 7.8mph /  12.6km/h 98% 0in /  0.0mm
20:46 35.2 °F /  1.8 °C 34.7 °F /  1.5 °C 30.2in /  1022.9hPa NNE 6.5mph /  10.5km/h 10.3mph /  16.6km/h 98% 0in /  0.0mm
20:51 35.4 °F /  1.9 °C 34.9 °F /  1.6 °C 30.2in /  1022.9hPa East 4.9mph /  7.9km/h 10.3mph /  16.6km/h 98% 0in /  0.0mm
20:55 35.4 °F /  1.9 °C 34.9 °F /  1.6 °C 30.2in /  1022.9hPa ENE 6.3mph /  10.1km/h 8.1mph /  13.0km/h 98% 0in /  0.0mm
21:00 35.4 °F /  1.9 °C 34.9 °F /  1.6 °C 30.2in /  1022.9hPa ENE 5.8mph /  9.3km/h 8.7mph /  14.0km/h 98% 0in /  0.0mm
21:05 35.4 °F /  1.9 °C 34.9 °F /  1.6 °C 30.2in /  1022.9hPa ENE 2.9mph /  4.7km/h 8.7mph /  14.0km/h 98% 0in /  0.0mm
21:11 35.4 °F /  1.9 °C 34.9 °F /  1.6 °C 30.2in /  1022.9hPa ENE 4mph /  6.4km/h 6.5mph /  10.5km/h 98% 0in /  0.0mm
21:15 35.4 °F /  1.9 °C 34.9 °F /  1.6 °C 30.2in /  1022.9hPa NE 5.6mph /  9.0km/h 8.5mph /  13.7km/h 98% 0in /  0.0mm
21:21 35.4 °F /  1.9 °C 34.9 °F /  1.6 °C 30.2in /  1022.9hPa NE 5.4mph /  8.7km/h 8.5mph /  13.7km/h 98% 0in /  0.0mm
21:25 35.4 °F /  1.9 °C 34.9 °F /  1.6 °C 30.2in /  1021.9hPa ENE 7.4mph /  11.9km/h 8.7mph /  14.0km/h 98% 0in /  0.0mm
21:30 35.4 °F /  1.9 °C 34.9 °F /  1.6 °C 30.2in /  1021.9hPa ENE 2.9mph /  4.7km/h 8.7mph /  14.0km/h 98% 0in /  0.0mm
21:35 35.4 °F /  1.9 °C 34.9 °F /  1.6 °C 30.2in /  1021.9hPa ENE 3.1mph /  5.0km/h 7.4mph /  11.9km/h 98% 0in /  0.0mm
21:40 35.4 °F /  1.9 °C 34.9 °F /  1.6 °C 30.2in /  1022.9hPa NE 6.3mph /  10.1km/h 6.9mph /  11.1km/h 98% 0in /  0.0mm
21:45 35.4 °F /  1.9 °C 34.5 °F /  1.4 °C 30.2in /  1022.9hPa ENE 4.9mph /  7.9km/h 8.5mph /  13.7km/h 97% 0in /  0.0mm
21:50 35.4 °F /  1.9 °C 34.5 °F /  1.4 °C 30.2in /  1022.9hPa ENE 5.4mph /  8.7km/h 8.5mph /  13.7km/h 97% 0in /  0.0mm
21:55 35.4 °F /  1.9 °C 34.5 °F /  1.4 °C 30.2in /  1022.9hPa NE 6mph /  9.7km/h 8.1mph /  13.0km/h 97% 0in /  0.0mm
22:00 35.2 °F /  1.8 °C 34.3 °F /  1.3 °C 30.2in /  1022.9hPa NE 6.5mph /  10.5km/h 8.1mph /  13.0km/h 97% 0in /  0.0mm
22:05 35.4 °F /  1.9 °C 34.5 °F /  1.4 °C 30.2in /  1022.9hPa ENE 6mph /  9.7km/h 7.8mph /  12.6km/h 97% 0in /  0.0mm
22:10 35.4 °F /  1.9 °C 34.5 °F /  1.4 °C 30.2in /  1022.9hPa NE 5.8mph /  9.3km/h 6.5mph /  10.5km/h 97% 0in /  0.0mm
22:15 35.4 °F /  1.9 °C 34.5 °F /  1.4 °C 30.2in /  1022.9hPa NE 5.6mph /  9.0km/h 6.5mph /  10.5km/h 97% 0in /  0.0mm
22:20 35.4 °F /  1.9 °C 34.5 °F /  1.4 °C 30.2in /  1022.9hPa ENE 4.3mph /  6.9km/h 6.5mph /  10.5km/h 97% 0in /  0.0mm
22:25 35.4 °F /  1.9 °C 34.5 °F /  1.4 °C 30.2in /  1022.9hPa East 4.9mph /  7.9km/h 6mph /  9.7km/h 97% 0in /  0.0mm
22:27 35.4 °F /  1.9 °C 34.5 °F /  1.4 °C 30.2in /  1022.9hPa East 4.7mph /  7.6km/h 6mph /  9.7km/h 97% 0in /  0.0mm
22:32 35.4 °F /  1.9 °C 34.5 °F /  1.4 °C 30.2in /  1022.9hPa ENE 4.3mph /  6.9km/h 6.3mph /  10.1km/h 97% 0in /  0.0mm
22:37 35.4 °F /  1.9 °C 34.5 °F /  1.4 °C 30.2in /  1022.9hPa ENE 6.3mph /  10.1km/h 6.3mph /  10.1km/h 97% 0in /  0.0mm
22:42 35.4 °F /  1.9 °C 34.5 °F /  1.4 °C 30.2in /  1022.9hPa ENE 3.8mph /  6.1km/h 8.5mph /  13.7km/h 97% 0in /  0.0mm
22:47 35.4 °F /  1.9 °C 34.5 °F /  1.4 °C 30.2in /  1022.9hPa ENE 4mph /  6.4km/h 8.5mph /  13.7km/h 97% 0in /  0.0mm
22:52 35.2 °F /  1.8 °C 34.3 °F /  1.3 °C 30.2in /  1022.9hPa ENE 3.4mph /  5.5km/h 6mph /  9.7km/h 97% 0in /  0.0mm
22:57 35.1 °F /  1.7 °C 34.2 °F /  1.2 °C 30.2in /  1022.9hPa ENE 6.5mph /  10.5km/h 8.7mph /  14.0km/h 97% 0in /  0.0mm
23:02 35.1 °F /  1.7 °C 34.2 °F /  1.2 °C 30.2in /  1022.9hPa East 6.3mph /  10.1km/h 8.7mph /  14.0km/h 97% 0in /  0.0mm
23:07 35.1 °F /  1.7 °C 34.2 °F /  1.2 °C 30.2in /  1022.9hPa NE 3.8mph /  6.1km/h 7.6mph /  12.2km/h 97% 0in /  0.0mm
23:12 34.9 °F /  1.6 °C 34.2 °F /  1.2 °C 30.2in /  1022.9hPa ENE 5.4mph /  8.7km/h 8.1mph /  13.0km/h 97% 0in /  0.0mm
23:17 34.5 °F /  1.4 °C 33.6 °F /  0.9 °C 30.2in /  1022.9hPa ENE 5.4mph /  8.7km/h 8.1mph /  13.0km/h 97% 0in /  0.0mm
23:22 34.5 °F /  1.4 °C 33.4 °F /  0.8 °C 30.2in /  1022.9hPa ENE 3.4mph /  5.5km/h 6.5mph /  10.5km/h 96% 0in /  0.0mm
23:27 34.3 °F /  1.3 °C 33.3 °F /  0.7 °C 30.2in /  1021.9hPa ENE 6mph /  9.7km/h 6.5mph /  10.5km/h 96% 0in /  0.0mm
23:32 34.2 °F /  1.2 °C 33.1 °F /  0.6 °C 30.2in /  1021.9hPa NE 6mph /  9.7km/h 6.5mph /  10.5km/h 96% 0in /  0.0mm
23:37 34 °F /  1.1 °C 33.3 °F /  0.7 °C 30.2in /  1021.9hPa NE 5.4mph /  8.7km/h 7.6mph /  12.2km/h 97% 0in /  0.0mm
23:42 34 °F /  1.1 °C 33.3 °F /  0.7 °C 30.2in /  1021.9hPa NE 3.4mph /  5.5km/h 7.8mph /  12.6km/h 97% 0in /  0.0mm
23:47 33.8 °F /  1.0 °C 33.1 °F /  0.6 °C 30.2in /  1021.9hPa North 4.5mph /  7.2km/h 7.8mph /  12.6km/h 97% 0in /  0.0mm
23:55 33.6 °F /  0.9 °C 32.7 °F /  0.4 °C 30.2in /  1022.9hPa NNE 0.9mph /  1.4km/h 6.5mph /  10.5km/h 97% 0in /  0.0mm
Données Historique de Météo Turbie

Mise a jour : 22/05/2018 19:44:12
Généré par Cumulus 1.9.4 (1099)